createdAt,value
2022-10-29T00:00:45.807Z,95.79
2022-10-29T00:01:45.854Z,95.69
2022-10-29T00:02:45.823Z,95.69
2022-10-29T00:03:45.814Z,95.79
2022-10-29T00:04:45.876Z,95.90
2022-10-29T00:05:45.725Z,95.90
2022-10-29T00:06:45.800Z,96.00
2022-10-29T00:07:45.745Z,96.00
2022-10-29T00:08:45.696Z,96.10
2022-10-29T00:09:45.757Z,96.10
2022-10-29T00:10:45.709Z,96.00
2022-10-29T00:11:45.634Z,96.00
2022-10-29T00:12:45.681Z,96.10
2022-10-29T00:13:45.609Z,95.95
2022-10-29T00:14:45.687Z,95.95
2022-10-29T00:15:45.586Z,95.95
2022-10-29T00:16:46.760Z,95.95
2022-10-29T00:18:07.620Z,95.75
2022-10-29T00:18:45.608Z,95.65
2022-10-29T00:20:55.903Z,95.65
2022-10-29T00:21:57.954Z,95.54
2022-10-29T00:22:57.361Z,95.65
2022-10-29T00:23:55.853Z,95.65
2022-10-29T00:25:20.106Z,95.75
2022-10-29T00:25:56.932Z,95.54
2022-10-29T00:26:55.926Z,95.54
2022-10-29T00:27:57.909Z,95.54
2022-10-29T00:28:55.809Z,95.54
2022-10-29T00:29:55.841Z,95.54
2022-10-29T00:30:55.879Z,95.54
2022-10-29T00:32:17.955Z,95.59
2022-10-29T00:32:56.079Z,95.59
2022-10-29T00:33:55.747Z,95.59
2022-10-29T00:34:55.756Z,95.59
2022-10-29T00:35:55.785Z,95.59
2022-10-29T00:36:55.781Z,95.59
2022-10-29T00:37:56.166Z,95.59
2022-10-29T00:38:55.685Z,95.59
2022-10-29T00:39:55.686Z,95.69
2022-10-29T00:40:55.648Z,95.69
2022-10-29T00:41:55.627Z,95.53
2022-10-29T00:42:55.707Z,95.53
2022-10-29T00:43:55.617Z,95.53
2022-10-29T00:44:55.629Z,95.53
2022-10-29T00:45:57.621Z,95.74
2022-10-29T00:46:55.556Z,95.84
2022-10-29T00:47:55.754Z,95.74
2022-10-29T00:48:55.527Z,95.84
2022-10-29T00:49:55.528Z,95.84
2022-10-29T00:50:55.539Z,95.84
2022-10-29T00:51:55.486Z,95.94
2022-10-29T00:52:55.578Z,96.04
2022-10-29T00:54:17.499Z,96.04
2022-10-29T00:54:55.459Z,96.04
2022-10-29T00:55:58.713Z,96.04
2022-10-29T00:56:57.473Z,96.04
2022-10-29T00:57:55.606Z,96.04
2022-10-29T00:58:55.443Z,96.15
2022-10-29T00:59:55.434Z,96.15
2022-10-29T01:00:56.499Z,96.19
2022-10-29T01:01:55.630Z,96.19
2022-10-29T01:02:55.763Z,96.30
2022-10-29T01:03:55.361Z,96.19
2022-10-29T01:04:55.360Z,96.30
2022-10-29T01:05:55.402Z,96.39
2022-10-29T01:06:55.383Z,96.30
2022-10-29T01:07:55.384Z,96.30
2022-10-29T01:08:55.294Z,96.39
2022-10-29T01:09:55.354Z,96.30
2022-10-29T01:10:55.250Z,96.30
2022-10-29T01:11:55.314Z,96.30
2022-10-29T01:12:56.580Z,96.39
2022-10-29T01:13:56.256Z,96.50
2022-10-29T01:14:55.252Z,96.39
2022-10-29T01:15:56.319Z,96.50
2022-10-29T01:16:55.246Z,96.39
2022-10-29T01:17:55.449Z,96.50
2022-10-29T01:18:55.315Z,96.55
2022-10-29T01:19:55.163Z,96.39
2022-10-29T01:20:55.208Z,96.30
2022-10-29T01:21:55.172Z,96.19
2022-10-29T01:22:55.175Z,96.30
2022-10-29T01:23:55.188Z,96.19
2022-10-29T01:24:55.097Z,96.19
2022-10-29T01:25:55.146Z,96.09
2022-10-29T01:26:55.037Z,96.09
2022-10-29T01:27:55.340Z,95.98
2022-10-29T01:28:55.117Z,96.04
2022-10-29T01:29:55.025Z,96.04
2022-10-29T01:30:55.059Z,95.84
2022-10-29T01:31:54.986Z,95.84
2022-10-29T01:32:55.311Z,95.84
2022-10-29T01:33:55.058Z,95.84
2022-10-29T01:35:19.315Z,95.94
2022-10-29T01:35:54.940Z,95.84
2022-10-29T01:36:54.975Z,95.84
2022-10-29T01:37:55.020Z,95.89
2022-10-29T01:38:54.989Z,95.89
2022-10-29T01:39:54.867Z,95.98
2022-10-29T01:40:54.916Z,95.84
2022-10-29T01:41:56.881Z,95.74
2022-10-29T01:42:55.145Z,96.04
2022-10-29T01:43:54.920Z,95.84
2022-10-29T01:44:54.823Z,95.90
2022-10-29T01:45:54.869Z,95.69
2022-10-29T01:46:54.838Z,95.59
2022-10-29T01:47:55.160Z,95.29
2022-10-29T01:48:54.880Z,95.08
2022-10-29T01:49:54.766Z,94.93
2022-10-29T01:50:54.790Z,94.73
2022-10-29T01:51:54.777Z,94.63
2022-10-29T01:52:54.779Z,94.23
2022-10-29T01:53:54.688Z,94.02
2022-10-29T01:54:54.690Z,93.82
2022-10-29T01:55:54.740Z,93.82
2022-10-29T01:56:54.704Z,93.62
2022-10-29T01:57:55.034Z,93.41
2022-10-29T01:58:55.653Z,93.51
2022-10-29T01:59:56.088Z,93.41
2022-10-29T02:00:54.706Z,93.41
2022-10-29T02:01:54.780Z,93.31
2022-10-29T02:02:54.749Z,93.31
2022-10-29T02:03:54.642Z,93.10
2022-10-29T02:04:54.543Z,93.01
2022-10-29T02:05:55.616Z,93.01
2022-10-29T02:06:54.555Z,93.10
2022-10-29T02:07:54.564Z,93.45
2022-10-29T02:08:54.586Z,93.55
2022-10-29T02:09:54.574Z,93.55
2022-10-29T02:10:55.533Z,93.96
2022-10-29T02:11:54.486Z,93.86
2022-10-29T02:12:54.848Z,93.96
2022-10-29T02:13:54.506Z,93.96
2022-10-29T02:14:54.515Z,94.01
2022-10-29T02:15:54.408Z,94.11
2022-10-29T02:16:54.429Z,94.11
2022-10-29T02:17:54.663Z,94.42
2022-10-29T02:18:54.357Z,94.66
2022-10-29T02:19:54.447Z,94.66
2022-10-29T02:20:54.401Z,94.97
2022-10-29T02:21:55.388Z,95.12
2022-10-29T02:22:54.357Z,95.42
2022-10-29T02:23:54.369Z,95.52
2022-10-29T02:24:54.368Z,95.73
2022-10-29T02:25:54.396Z,95.83
2022-10-29T02:28:04.479Z,95.98
2022-10-29T02:29:04.538Z,95.78
2022-10-29T02:30:04.547Z,95.78
2022-10-29T02:31:04.477Z,95.68
2022-10-29T02:32:04.472Z,95.62
2022-10-29T02:33:04.407Z,95.62
2022-10-29T02:34:04.468Z,95.62
2022-10-29T02:35:04.502Z,95.73
2022-10-29T02:36:04.387Z,95.73
2022-10-29T02:37:04.387Z,95.62
2022-10-29T02:38:04.401Z,95.83
2022-10-29T02:39:04.397Z,95.97
2022-10-29T02:40:04.348Z,96.18
2022-10-29T02:41:04.343Z,96.38
2022-10-29T02:42:04.329Z,96.38
2022-10-29T02:43:06.340Z,96.38
2022-10-29T02:44:27.300Z,96.48
2022-10-29T02:45:04.281Z,96.48
2022-10-29T02:46:04.239Z,96.48
2022-10-29T02:47:11.835Z,96.59
2022-10-29T02:48:04.195Z,96.59
2022-10-29T02:49:11.708Z,96.59
2022-10-29T02:50:04.268Z,96.69
2022-10-29T02:51:12.958Z,96.59
2022-10-29T02:52:04.163Z,96.73
2022-10-29T02:53:11.645Z,96.63
2022-10-29T02:54:12.801Z,96.63
2022-10-29T02:55:11.620Z,96.63
2022-10-29T02:56:12.798Z,96.73
2022-10-29T02:57:12.636Z,96.84
2022-10-29T02:58:04.083Z,96.94
2022-10-29T02:59:12.023Z,96.84
2022-10-29T03:00:04.037Z,96.94
2022-10-29T03:01:12.737Z,96.94
2022-10-29T03:03:05.452Z,97.04
2022-10-29T03:04:12.913Z,97.04
2022-10-29T03:05:12.913Z,96.94
2022-10-29T03:06:14.091Z,96.84
2022-10-29T03:07:12.893Z,96.84
2022-10-29T03:08:05.427Z,96.84
2022-10-29T03:09:05.434Z,96.84
2022-10-29T03:10:05.446Z,96.84
2022-10-29T03:11:05.384Z,96.94
2022-10-29T03:12:05.356Z,96.84
2022-10-29T03:13:05.365Z,96.84
2022-10-29T03:14:05.365Z,96.84
2022-10-29T03:15:05.376Z,96.84
2022-10-29T03:16:05.277Z,96.84
2022-10-29T03:17:05.325Z,96.94
2022-10-29T03:18:05.305Z,96.94
2022-10-29T03:19:05.306Z,96.94
2022-10-29T03:20:05.305Z,96.94
2022-10-29T03:21:05.217Z,96.98
2022-10-29T03:22:05.199Z,97.04
2022-10-29T03:23:05.256Z,97.04
2022-10-29T03:24:06.257Z,96.98
2022-10-29T03:25:06.178Z,96.88
2022-10-29T03:26:05.139Z,96.78
2022-10-29T03:27:05.127Z,96.68
2022-10-29T03:28:05.162Z,96.78
2022-10-29T03:29:05.174Z,96.78
2022-10-29T03:30:06.098Z,96.68
2022-10-29T03:31:05.079Z,96.58
2022-10-29T03:32:05.131Z,96.68
2022-10-29T03:33:05.089Z,96.68
2022-10-29T03:34:05.099Z,96.83
2022-10-29T03:35:26.095Z,96.92
2022-10-29T03:36:06.080Z,96.83
2022-10-29T03:37:05.040Z,96.72
2022-10-29T03:38:04.981Z,96.72
2022-10-29T03:39:05.040Z,96.62
2022-10-29T03:40:05.076Z,96.72
2022-10-29T03:41:05.955Z,96.72
2022-10-29T03:42:04.990Z,96.72
2022-10-29T03:43:04.933Z,96.72
2022-10-29T03:44:04.969Z,96.83
2022-10-29T03:45:04.961Z,96.83
2022-10-29T03:46:05.017Z,96.83
2022-10-29T03:47:04.923Z,96.83
2022-10-29T03:48:04.882Z,96.92
2022-10-29T03:49:04.881Z,96.92
2022-10-29T04:03:00.234Z,96.26
2022-10-29T04:03:59.867Z,96.26
2022-10-29T04:04:59.777Z,96.36
2022-10-29T04:05:59.749Z,96.36
2022-10-29T04:06:59.797Z,96.26
2022-10-29T04:07:59.837Z,96.20
2022-10-29T04:08:59.758Z,96.20
2022-10-29T04:09:59.700Z,96.20
2022-10-29T04:10:59.719Z,96.41
2022-10-29T04:11:59.678Z,96.61
2022-10-29T04:12:59.770Z,96.71
2022-10-29T04:14:00.661Z,96.71
2022-10-29T04:14:59.650Z,96.71
2022-10-29T04:15:59.673Z,96.71
2022-10-29T04:16:59.651Z,96.71
2022-10-29T04:17:59.832Z,96.71
2022-10-29T04:18:59.667Z,96.71
2022-10-29T04:19:59.585Z,96.61
2022-10-29T04:24:32.484Z,96.55
2022-10-29T04:29:10.707Z,96.66
2022-10-29T04:30:09.808Z,96.75
2022-10-29T04:31:17.207Z,96.80
2022-10-29T04:32:09.711Z,96.80
2022-10-29T04:33:09.682Z,96.80
2022-10-29T04:34:09.685Z,96.91
2022-10-29T04:35:09.681Z,96.91
2022-10-29T04:36:09.693Z,96.91
2022-10-29T04:37:09.620Z,97.00
2022-10-29T04:38:09.602Z,97.00
2022-10-29T04:39:09.614Z,97.11
2022-10-29T04:40:09.619Z,97.11
2022-10-29T04:41:09.561Z,97.21
2022-10-29T04:42:12.744Z,97.21
2022-10-29T04:43:09.532Z,97.21
2022-10-29T04:44:09.517Z,97.21
2022-10-29T04:45:09.577Z,97.25
2022-10-29T04:46:09.493Z,97.25
2022-10-29T04:47:09.493Z,97.25
2022-10-29T04:48:30.566Z,97.25
2022-10-29T04:49:09.505Z,97.25
2022-10-29T04:50:09.496Z,97.25
2022-10-29T04:51:09.494Z,97.25
2022-10-29T04:52:09.434Z,97.25
2022-10-29T04:53:09.412Z,97.25
2022-10-29T04:54:09.404Z,97.25
2022-10-29T04:55:09.424Z,97.25
2022-10-29T04:56:09.419Z,97.25
2022-10-29T04:57:09.337Z,97.36
2022-10-29T04:58:09.356Z,97.36
2022-10-29T04:59:10.364Z,97.36
2022-10-29T05:00:09.343Z,97.36
2022-10-29T05:01:09.499Z,97.36
2022-10-29T05:02:09.364Z,97.46
2022-10-29T05:03:09.291Z,97.56
2022-10-29T05:04:09.273Z,97.56
2022-10-29T05:06:20.469Z,97.66
2022-10-29T05:07:20.559Z,97.66
2022-10-29T05:08:20.498Z,97.62
2022-10-29T05:09:20.474Z,97.82
2022-10-29T05:10:20.486Z,97.72
2022-10-29T05:11:22.449Z,97.72
2022-10-29T05:12:20.492Z,97.72
2022-10-29T05:13:20.443Z,97.62
2022-10-29T05:14:20.401Z,97.62
2022-10-29T05:15:20.405Z,97.62
2022-10-29T05:16:21.449Z,97.62
2022-10-29T05:17:21.347Z,97.62
2022-10-29T05:18:20.324Z,97.62
2022-10-29T05:19:22.401Z,97.62
2022-10-29T05:20:20.356Z,97.62
2022-10-29T05:21:20.350Z,97.72
2022-10-29T05:22:20.358Z,97.67
2022-10-29T05:23:20.293Z,97.78
2022-10-29T05:24:20.273Z,97.67
2022-10-29T05:25:20.282Z,97.57
2022-10-29T05:26:20.302Z,97.57
2022-10-29T05:27:20.199Z,97.47
2022-10-29T05:28:20.225Z,97.47
2022-10-29T05:29:20.192Z,97.47
2022-10-29T05:30:20.217Z,97.47
2022-10-29T05:31:20.233Z,97.47
2022-10-29T05:32:20.218Z,97.47
2022-10-29T05:33:23.429Z,97.37
2022-10-29T05:34:20.118Z,97.37
2022-10-29T05:35:20.133Z,97.41
2022-10-29T05:36:20.159Z,97.41
2022-10-29T05:37:20.172Z,97.41
2022-10-29T05:38:20.079Z,97.47
2022-10-29T05:39:20.077Z,97.47
2022-10-29T05:40:20.035Z,97.47
2022-10-29T05:41:20.228Z,97.47
2022-10-29T05:42:20.086Z,97.47
2022-10-29T05:43:20.029Z,97.47
2022-10-29T05:44:19.983Z,97.57
2022-10-29T05:45:20.059Z,97.57
2022-10-29T05:46:20.044Z,97.57
2022-10-29T05:47:20.016Z,97.67
2022-10-29T05:48:19.955Z,97.67
2022-10-29T05:49:20.044Z,97.78
2022-10-29T05:50:20.028Z,97.74
2022-10-29T05:51:19.987Z,97.83
2022-10-29T05:52:19.956Z,97.83
2022-10-29T05:53:20.072Z,97.83
2022-10-29T05:54:19.879Z,97.74
2022-10-29T05:55:19.876Z,97.83
2022-10-29T05:56:19.876Z,97.83
2022-10-29T05:57:19.817Z,97.83
2022-10-29T05:58:19.917Z,97.83
2022-10-29T05:59:20.829Z,97.83
2022-10-29T06:00:19.769Z,97.79
2022-10-29T06:01:19.982Z,97.79
2022-10-29T06:02:19.920Z,97.69
2022-10-29T06:03:19.859Z,97.69
2022-10-29T06:04:19.728Z,97.79
2022-10-29T06:05:19.749Z,97.69
2022-10-29T06:06:19.796Z,97.69
2022-10-29T06:07:19.810Z,97.58
2022-10-29T06:08:20.720Z,97.49
2022-10-29T06:09:19.775Z,97.38
2022-10-29T06:10:19.660Z,97.28
2022-10-29T06:11:19.669Z,97.28
2022-10-29T06:12:19.683Z,97.17
2022-10-29T06:13:19.718Z,97.17
2022-10-29T06:14:20.610Z,97.17
2022-10-29T06:15:19.701Z,97.17
2022-10-29T06:16:19.588Z,97.17
2022-10-29T06:17:19.627Z,97.28
2022-10-29T06:18:19.667Z,97.28
2022-10-29T06:19:19.532Z,97.28
2022-10-29T06:20:19.522Z,97.28
2022-10-29T06:21:19.542Z,97.28
2022-10-29T06:22:19.530Z,97.28
2022-10-29T06:23:19.506Z,97.38
2022-10-29T06:24:19.551Z,97.38
2022-10-29T06:26:29.679Z,97.38
2022-10-29T06:27:30.867Z,97.28
2022-10-29T06:29:39.902Z,97.28
2022-10-29T06:30:40.901Z,97.24
2022-10-29T06:31:39.971Z,97.24
2022-10-29T06:32:39.902Z,97.24
2022-10-29T06:33:39.882Z,97.24
2022-10-29T06:34:39.890Z,97.13
2022-10-29T06:36:57.552Z,97.24
2022-10-29T06:38:09.426Z,97.24
2022-10-29T06:39:19.552Z,97.19
2022-10-29T06:39:57.502Z,97.19
2022-10-29T06:40:57.497Z,97.08
2022-10-29T06:41:59.530Z,96.94
2022-10-29T06:42:57.483Z,96.73
2022-10-29T06:43:57.475Z,96.53
2022-10-29T06:44:57.480Z,96.33
2022-10-29T06:45:57.490Z,96.22
2022-10-29T06:46:57.491Z,96.22
2022-10-29T06:48:00.074Z,96.22
2022-10-29T06:49:04.905Z,96.08
2022-10-29T06:49:57.378Z,96.08
2022-10-29T06:51:04.980Z,95.97
2022-10-29T06:51:57.349Z,95.97
2022-10-29T06:52:58.559Z,95.83
2022-10-29T06:53:57.330Z,95.62
2022-10-29T06:54:57.329Z,95.42
2022-10-29T06:55:57.368Z,95.17
2022-10-29T06:56:57.361Z,95.07
2022-10-29T06:57:57.291Z,94.87
2022-10-29T06:58:58.292Z,94.66
2022-10-29T06:59:57.260Z,94.56
2022-10-29T07:01:57.336Z,94.56
2022-10-29T07:02:57.608Z,94.56
2022-10-29T07:03:58.229Z,94.35
2022-10-29T07:04:57.211Z,94.26
2022-10-29T07:05:57.226Z,94.26
2022-10-29T07:06:57.221Z,94.35
2022-10-29T07:07:57.727Z,94.35
2022-10-29T07:08:57.150Z,94.35
2022-10-29T07:09:57.143Z,94.56
2022-10-29T07:10:57.142Z,94.56
2022-10-29T07:11:57.174Z,94.56
2022-10-29T07:12:57.183Z,94.60
2022-10-29T07:13:57.093Z,94.60
2022-10-29T07:15:18.183Z,94.71
2022-10-29T07:15:57.082Z,95.01
2022-10-29T07:16:57.093Z,95.12
2022-10-29T07:17:57.521Z,94.91
2022-10-29T07:18:57.032Z,95.01
2022-10-29T07:19:57.003Z,94.97
2022-10-29T07:20:57.012Z,94.87
2022-10-29T07:21:57.022Z,94.72
2022-10-29T07:22:57.134Z,94.52
2022-10-29T07:23:57.184Z,94.21
2022-10-29T07:25:00.211Z,93.86
2022-10-29T07:25:56.948Z,93.55
2022-10-29T07:26:56.955Z,93.25
2022-10-29T07:27:57.260Z,93.40
2022-10-29T07:28:56.918Z,93.80
2022-10-29T07:29:56.874Z,93.90
2022-10-29T07:30:56.886Z,94.21
2022-10-29T07:31:56.889Z,94.56
2022-10-29T07:32:56.901Z,94.66
2022-10-29T07:33:56.834Z,94.87
2022-10-29T07:34:56.814Z,94.87
2022-10-29T07:35:56.775Z,94.87
2022-10-29T07:36:56.829Z,94.72
2022-10-29T07:38:00.383Z,94.62
2022-10-29T07:38:56.868Z,94.62
2022-10-29T07:39:56.738Z,94.66
2022-10-29T07:40:56.715Z,94.62
2022-10-29T07:41:59.217Z,94.72
2022-10-29T07:42:56.999Z,94.82
2022-10-29T07:43:56.801Z,94.72
2022-10-29T07:44:56.787Z,94.72
2022-10-29T07:45:56.648Z,94.72
2022-10-29T07:46:56.705Z,94.82
2022-10-29T07:48:02.233Z,94.92
2022-10-29T07:48:57.659Z,95.03
2022-10-29T07:49:57.630Z,94.92
2022-10-29T07:50:56.619Z,94.82
2022-10-29T07:51:56.619Z,94.82
2022-10-29T07:52:56.960Z,94.82
2022-10-29T07:53:56.684Z,94.78
2022-10-29T07:54:56.629Z,94.68
2022-10-29T07:55:56.538Z,94.68
2022-10-29T07:56:56.549Z,94.43
2022-10-29T07:57:56.927Z,94.32
2022-10-29T07:58:56.592Z,94.02
2022-10-29T07:59:56.449Z,93.92
2022-10-29T08:02:06.792Z,93.67
2022-10-29T08:03:06.771Z,93.57
2022-10-29T08:04:06.655Z,93.47
2022-10-29T08:05:06.740Z,93.47
2022-10-29T08:06:06.667Z,93.47
2022-10-29T08:08:16.907Z,93.47
2022-10-29T08:09:16.917Z,93.57
2022-10-29T08:10:16.930Z,93.57
2022-10-29T08:11:16.816Z,93.52
2022-10-29T08:12:16.835Z,93.43
2022-10-29T08:13:16.864Z,93.43
2022-10-29T08:14:20.229Z,93.12
2022-10-29T08:15:17.785Z,93.12
2022-10-29T08:16:16.747Z,93.02
2022-10-29T08:17:16.731Z,92.97
2022-10-29T08:18:18.736Z,92.77
2022-10-29T08:19:16.767Z,92.32
2022-10-29T08:20:16.775Z,92.02
2022-10-29T08:21:16.798Z,92.22
2022-10-29T08:22:16.701Z,92.22
2022-10-29T08:23:16.748Z,91.82
2022-10-29T08:24:16.740Z,91.67
2022-10-29T08:25:16.708Z,91.67
2022-10-29T08:26:16.708Z,91.32
2022-10-29T08:27:16.637Z,91.12
2022-10-29T08:28:16.671Z,91.32
2022-10-29T08:29:16.650Z,91.42
2022-10-29T08:30:16.643Z,91.42
2022-10-29T08:31:16.772Z,90.97
2022-10-29T08:32:16.591Z,90.97
2022-10-29T08:33:16.534Z,90.77
2022-10-29T08:34:16.579Z,90.53
2022-10-29T08:35:16.571Z,90.32
2022-10-29T08:36:16.582Z,90.02
2022-10-29T08:37:16.488Z,90.02
2022-10-29T08:38:16.526Z,89.72
2022-10-29T08:39:16.491Z,89.92
2022-10-29T08:40:16.511Z,90.02
2022-10-29T08:41:16.511Z,90.18
2022-10-29T08:42:16.411Z,90.12
2022-10-29T08:43:17.481Z,89.98
2022-10-29T08:44:16.380Z,90.28
2022-10-29T08:45:16.442Z,90.69
2022-10-29T08:46:16.453Z,90.38
2022-10-29T08:47:16.353Z,90.28
2022-10-29T08:48:17.410Z,90.28
2022-10-29T08:49:16.363Z,90.18
2022-10-29T08:50:16.374Z,90.28
2022-10-29T08:51:16.385Z,90.28
2022-10-29T08:52:16.394Z,90.08
2022-10-29T08:53:23.300Z,90.28
2022-10-29T08:54:30.413Z,90.18
2022-10-29T08:55:17.331Z,89.73
2022-10-29T08:56:16.315Z,90.03
2022-10-29T08:57:16.324Z,89.94
2022-10-29T08:58:16.254Z,89.83
2022-10-29T08:59:16.239Z,89.73
2022-10-29T09:00:18.218Z,89.39
2022-10-29T09:01:16.358Z,88.98
2022-10-29T09:02:16.336Z,88.78
2022-10-29T09:03:16.186Z,88.78
2022-10-29T09:04:16.164Z,89.08
2022-10-29T09:05:16.178Z,88.64
2022-10-29T09:06:16.089Z,88.94
2022-10-29T09:07:16.183Z,88.19
2022-10-29T09:08:16.119Z,88.19
2022-10-29T09:09:16.087Z,87.84
2022-10-29T09:10:16.108Z,87.24
2022-10-29T09:11:16.124Z,87.30
2022-10-29T09:12:16.108Z,86.99
2022-10-29T09:13:16.044Z,86.79
2022-10-29T09:14:16.027Z,86.49
2022-10-29T09:15:16.029Z,86.49
2022-10-29T09:16:16.047Z,86.79
2022-10-29T09:17:15.958Z,86.79
2022-10-29T09:18:15.978Z,86.19
2022-10-29T09:19:15.957Z,86.39
2022-10-29T09:20:16.042Z,86.39
2022-10-29T09:21:15.978Z,87.04
2022-10-29T09:22:15.889Z,87.04
2022-10-29T09:23:15.909Z,87.40
2022-10-29T09:24:15.901Z,87.60
2022-10-29T09:25:15.899Z,87.74
2022-10-29T09:26:15.899Z,87.64
2022-10-29T09:27:15.830Z,87.95
2022-10-29T09:28:15.840Z,87.81
2022-10-29T09:29:15.819Z,87.70
2022-10-29T09:30:15.849Z,87.30
2022-10-29T09:31:15.846Z,87.60
2022-10-29T09:32:15.861Z,87.19
2022-10-29T09:33:15.761Z,87.19
2022-10-29T09:34:15.757Z,87.10
2022-10-29T09:35:15.751Z,87.10
2022-10-29T09:36:15.773Z,87.40
2022-10-29T09:37:15.772Z,86.99
2022-10-29T09:38:15.714Z,86.75
2022-10-29T09:39:15.699Z,86.55
2022-10-29T09:40:15.702Z,86.45
2022-10-29T09:41:15.693Z,86.41
2022-10-29T09:42:15.719Z,86.71
2022-10-29T09:43:15.635Z,85.50
2022-10-29T09:44:15.604Z,84.65
2022-10-29T09:45:15.624Z,83.91
2022-10-29T09:46:15.653Z,83.36
2022-10-29T09:47:15.634Z,83.02
2022-10-29T10:03:25.204Z,59.30
2022-10-29T10:04:25.283Z,58.17
2022-10-29T10:05:25.176Z,58.02
2022-10-29T10:06:25.153Z,56.90
2022-10-29T10:07:25.231Z,56.51
2022-10-29T10:08:26.129Z,56.60
2022-10-29T10:09:25.104Z,56.90
2022-10-29T10:10:25.093Z,56.48
2022-10-29T10:11:25.115Z,55.46
2022-10-29T10:12:25.191Z,54.86
2022-10-29T10:13:27.367Z,55.16
2022-10-29T10:14:26.068Z,55.76
2022-10-29T10:15:25.047Z,54.96
2022-10-29T10:16:25.057Z,54.44
2022-10-29T10:17:25.017Z,53.82
2022-10-29T10:18:25.065Z,54.32
2022-10-29T10:19:26.011Z,54.71
2022-10-29T10:20:25.215Z,55.38
2022-10-29T10:21:24.991Z,53.18
2022-10-29T10:22:25.029Z,55.18
2022-10-29T10:23:25.004Z,52.63
2022-10-29T10:24:25.010Z,51.79
2022-10-29T10:25:24.997Z,50.29
2022-10-29T10:26:24.941Z,51.35
2022-10-29T10:27:24.952Z,49.75
2022-10-29T10:28:24.865Z,49.62
2022-10-29T10:29:24.940Z,48.52
2022-10-29T10:30:24.946Z,48.69
2022-10-29T10:31:24.884Z,47.80
2022-10-29T10:32:24.885Z,48.74
2022-10-29T10:33:24.874Z,50.81
2022-10-29T10:34:24.871Z,53.33
2022-10-29T10:35:24.927Z,51.52
2022-10-29T10:36:24.785Z,50.46
2022-10-29T10:37:24.817Z,48.71
2022-10-29T10:38:25.819Z,48.52
2022-10-29T10:39:24.726Z,47.91
2022-10-29T10:40:24.731Z,47.15
2022-10-29T10:41:24.706Z,47.52
2022-10-29T10:42:24.757Z,47.42
2022-10-29T10:43:24.717Z,47.32
2022-10-29T10:44:24.734Z,45.92
2022-10-29T10:45:24.809Z,45.34
2022-10-29T10:46:25.687Z,45.02
2022-10-29T10:47:26.740Z,45.21
2022-10-29T10:48:28.525Z,45.21
2022-10-29T10:49:25.688Z,45.09
2022-10-29T10:50:24.597Z,44.19
2022-10-29T10:51:24.571Z,44.07
2022-10-29T10:52:24.620Z,43.46
2022-10-29T10:53:24.590Z,43.07
2022-10-29T10:54:27.328Z,42.66
2022-10-29T10:55:24.648Z,42.64
2022-10-29T10:56:24.611Z,44.20
2022-10-29T10:57:24.562Z,43.03
2022-10-29T10:58:24.521Z,43.01
2022-10-29T10:59:25.616Z,41.54
2022-10-29T11:00:25.564Z,42.11
2022-10-29T11:01:24.547Z,41.23
2022-10-29T11:02:24.554Z,41.23
2022-10-29T11:04:25.491Z,41.11
2022-10-29T11:05:25.547Z,42.99
2022-10-29T11:06:24.478Z,43.10
2022-10-29T11:07:24.409Z,41.07
2022-10-29T11:08:24.387Z,40.17
2022-10-29T11:09:24.389Z,40.47
2022-10-29T11:10:24.408Z,42.44
2022-10-29T11:11:46.377Z,42.52
2022-10-29T11:12:24.408Z,40.66
2022-10-29T11:13:24.333Z,39.37
2022-10-29T11:14:24.321Z,39.65
2022-10-29T11:15:24.344Z,41.67
2022-10-29T11:16:24.339Z,41.87
2022-10-29T11:17:25.302Z,43.16
2022-10-29T11:18:24.360Z,41.11
2022-10-29T11:19:24.257Z,41.60
2022-10-29T11:20:24.271Z,39.41
2022-10-29T11:21:25.298Z,38.63
2022-10-29T11:22:24.333Z,38.35
2022-10-29T11:23:24.211Z,38.61
2022-10-29T11:24:24.204Z,39.61
2022-10-29T11:25:24.255Z,39.53
2022-10-29T11:27:34.391Z,40.50
2022-10-29T11:28:55.470Z,39.80
2022-10-29T11:30:44.896Z,42.25
2022-10-29T11:32:55.326Z,43.48
2022-10-29T11:33:54.861Z,42.15
2022-10-29T11:34:54.869Z,42.32
2022-10-29T11:35:58.817Z,43.61
2022-10-29T11:36:55.802Z,43.85
2022-10-29T11:37:55.103Z,47.04
2022-10-29T11:38:54.808Z,47.95
2022-10-29T11:41:05.005Z,47.43
2022-10-29T11:42:31.109Z,47.45
2022-10-29T11:43:25.954Z,50.43
2022-10-29T11:44:04.890Z,51.42
2022-10-29T11:45:04.984Z,48.88
2022-10-29T11:46:04.990Z,50.19
2022-10-29T11:47:04.898Z,49.89
2022-10-29T11:48:04.959Z,51.00
2022-10-29T11:49:04.825Z,50.81
2022-10-29T11:51:14.190Z,48.75
2022-10-29T11:52:14.251Z,48.92
2022-10-29T11:53:14.189Z,50.56
2022-10-29T11:54:15.183Z,51.84
2022-10-29T11:55:14.176Z,52.44
2022-10-29T11:56:15.212Z,51.82
2022-10-29T11:57:14.188Z,52.61
2022-10-29T11:58:14.224Z,52.31
2022-10-29T11:59:14.195Z,52.73
2022-10-29T12:00:14.119Z,53.63
2022-10-29T12:01:15.186Z,53.58
2022-10-29T12:02:14.066Z,51.37
2022-10-29T12:03:14.146Z,54.67
2022-10-29T12:04:15.785Z,50.65
2022-10-29T12:05:14.035Z,51.87
2022-10-29T12:06:14.038Z,56.23
2022-10-29T12:07:17.260Z,54.52
2022-10-29T12:08:14.062Z,53.53
2022-10-29T12:09:14.061Z,53.45
2022-10-29T12:10:13.967Z,55.64
2022-10-29T12:11:13.967Z,54.15
2022-10-29T12:12:14.008Z,52.98
2022-10-29T12:13:13.908Z,56.06
2022-10-29T12:14:13.987Z,52.89
2022-10-29T12:15:13.907Z,53.98
2022-10-29T12:16:13.908Z,54.60
2022-10-29T12:17:13.940Z,54.90
2022-10-29T12:18:13.995Z,57.25
2022-10-29T12:19:13.923Z,54.22
2022-10-29T12:20:13.932Z,52.07
2022-10-29T12:21:13.863Z,49.18
2022-10-29T12:22:13.889Z,52.53
2022-10-29T12:23:15.669Z,49.60
2022-10-29T12:24:13.862Z,46.50
2022-10-29T12:25:13.886Z,44.77
2022-10-29T12:26:13.782Z,42.18
2022-10-29T12:27:13.803Z,42.62
2022-10-29T12:28:13.784Z,39.86
2022-10-29T12:29:13.726Z,41.41
2022-10-29T12:30:13.803Z,41.11
2022-10-29T12:31:13.694Z,41.58
2022-10-29T12:32:13.706Z,42.54
2022-10-29T12:33:13.673Z,42.46
2022-10-29T12:34:13.654Z,40.64
2022-10-29T12:35:13.661Z,41.27
2022-10-29T12:36:13.627Z,40.82
2022-10-29T12:37:13.637Z,43.12
2022-10-29T12:38:13.675Z,44.22
2022-10-29T12:39:13.654Z,42.96
2022-10-29T12:40:13.576Z,42.89
2022-10-29T12:41:13.657Z,43.79
2022-10-29T12:42:13.608Z,44.40
2022-10-29T12:43:13.579Z,45.96
2022-10-29T12:44:13.586Z,44.60
2022-10-29T12:45:13.578Z,47.56
2022-10-29T12:46:20.102Z,48.14
2022-10-29T12:47:18.839Z,51.10
2022-10-29T12:48:35.457Z,48.47
2022-10-29T12:49:13.459Z,50.16
2022-10-29T12:50:15.483Z,48.91
2022-10-29T12:51:13.441Z,51.89
2022-10-29T12:52:13.482Z,51.45
2022-10-29T12:53:20.924Z,51.25
2022-10-29T12:54:13.440Z,52.06
2022-10-29T12:55:13.450Z,51.50
2022-10-29T12:56:16.493Z,50.31
2022-10-29T12:57:13.476Z,52.12
2022-10-29T12:58:14.446Z,51.92
2022-10-29T12:59:20.859Z,52.54
2022-10-29T13:01:16.650Z,52.66
2022-10-29T13:02:25.378Z,53.18
2022-10-29T13:03:16.638Z,55.06
2022-10-29T13:04:16.585Z,53.90
2022-10-29T13:06:26.769Z,57.20
2022-10-29T13:07:47.748Z,60.67
2022-10-29T13:08:48.761Z,60.00
2022-10-29T13:09:26.753Z,57.23
2022-10-29T13:10:50.799Z,59.44
2022-10-29T13:11:28.890Z,62.12
2022-10-29T13:12:26.723Z,60.85
2022-10-29T13:13:26.810Z,60.75
2022-10-29T13:14:26.672Z,62.87
2022-10-29T13:15:26.652Z,63.37
2022-10-29T13:16:26.642Z,61.68
2022-10-29T13:17:26.657Z,61.98
2022-10-29T13:18:26.658Z,58.50
2022-10-29T13:19:26.605Z,57.31
2022-10-29T13:20:26.635Z,57.11
2022-10-29T13:21:26.650Z,57.11
2022-10-29T13:22:26.675Z,57.11
2022-10-29T13:23:26.556Z,58.20
2022-10-29T13:24:26.562Z,58.50
2022-10-29T13:25:26.526Z,59.09
2022-10-29T13:26:26.577Z,57.64
2022-10-29T13:27:26.519Z,57.73
2022-10-29T13:28:26.494Z,58.62
2022-10-29T13:29:26.498Z,58.23
2022-10-29T13:30:26.500Z,59.92
2022-10-29T13:31:26.508Z,62.80
2022-10-29T13:32:26.551Z,63.73
2022-10-29T13:33:26.528Z,63.13
2022-10-29T13:34:48.500Z,63.06
2022-10-29T13:35:26.389Z,62.66
2022-10-29T13:36:26.444Z,62.96
2022-10-29T13:37:26.469Z,60.77
2022-10-29T13:39:26.467Z,65.05
2022-10-29T13:40:26.475Z,65.84
2022-10-29T13:41:26.319Z,65.15
2022-10-29T13:42:26.322Z,65.78
2022-10-29T13:43:27.304Z,64.48
2022-10-29T13:44:26.406Z,66.77
2022-10-29T13:45:26.300Z,65.68
2022-10-29T13:46:26.253Z,65.61
2022-10-29T13:47:26.383Z,67.00
2022-10-29T13:48:26.644Z,66.91
2022-10-29T13:49:26.371Z,68.00